DAL650 KSAN-KSFO
Flight info
| Callsign | DAL650 |
|---|---|
| Flight time | 1h 4m |
| Altitude | 36000 |
| Route | PADRZ2 IKAYE RIZIN SPLNT STOKD SERFR SERFR4 |
| Aircraft | A20N/M-SDE2E3FGHIRWXY/LB1 |
Departure
| Time | 2026-04-20 00:58 |
|---|---|
| Airport | San Diego International Airport (KSAN) |
Arrival
| Time | 2026-04-20 02:02 |
|---|---|
| Airport | San Francisco International Airport (KSFO) |
| Time | Latitude | Longitude | Altitude | Speed | Heading |
|---|---|---|---|---|---|
| 2026-04-20 00:21 | 32.73379 | -117.19857 | 29 ft | 0 kts | 177° |
| 2026-04-20 00:47 | 32.73378 | -117.19857 | 29 ft | 0 kts | 177° |
| 2026-04-20 00:48 | 32.73381 | -117.19857 | 29 ft | 1 kts | 177° |
| 2026-04-20 00:48 | 32.73390 | -117.19858 | 29 ft | 1 kts | 182° |
| 2026-04-20 00:49 | 32.73396 | -117.19858 | 29 ft | 1 kts | 150° |
| 2026-04-20 00:49 | 32.73403 | -117.19863 | 29 ft | 1 kts | 132° |
| 2026-04-20 00:49 | 32.73409 | -117.19872 | 29 ft | 2 kts | 108° |
| 2026-04-20 00:49 | 32.73411 | -117.19881 | 30 ft | 0 kts | 92° |
| 2026-04-20 00:50 | 32.73411 | -117.19872 | 29 ft | 6 kts | 84° |
| 2026-04-20 00:50 | 32.73415 | -117.19817 | 29 ft | 11 kts | 97° |
| 2026-04-20 00:50 | 32.73410 | -117.19685 | 29 ft | 11 kts | 73° |
| 2026-04-20 00:51 | 32.73404 | -117.19592 | 30 ft | 13 kts | 103° |
| 2026-04-20 00:51 | 32.73374 | -117.19462 | 30 ft | 20 kts | 105° |
| 2026-04-20 00:51 | 32.73336 | -117.19301 | 27 ft | 14 kts | 107° |
| 2026-04-20 00:51 | 32.73305 | -117.19183 | 27 ft | 15 kts | 102° |
| 2026-04-20 00:52 | 32.73277 | -117.19063 | 29 ft | 16 kts | 106° |
| 2026-04-20 00:52 | 32.73245 | -117.18932 | 30 ft | 18 kts | 106° |
| 2026-04-20 00:52 | 32.73209 | -117.18785 | 32 ft | 18 kts | 105° |
| 2026-04-20 00:52 | 32.73175 | -117.18640 | 31 ft | 20 kts | 105° |
| 2026-04-20 00:53 | 32.73132 | -117.18465 | 28 ft | 24 kts | 106° |
| 2026-04-20 00:53 | 32.73088 | -117.18290 | 28 ft | 22 kts | 105° |
| 2026-04-20 00:53 | 32.73044 | -117.18104 | 28 ft | 25 kts | 105° |
| 2026-04-20 00:53 | 32.72997 | -117.17908 | 28 ft | 26 kts | 107° |
| 2026-04-20 00:54 | 32.72952 | -117.17734 | 25 ft | 12 kts | 99° |
| 2026-04-20 00:54 | 32.72951 | -117.17720 | 26 ft | 0 kts | 91° |
| 2026-04-20 00:54 | 32.72951 | -117.17716 | 26 ft | 1 kts | 89° |
| 2026-04-20 00:56 | 32.72952 | -117.17698 | 25 ft | 6 kts | 83° |
| 2026-04-20 00:56 | 32.72978 | -117.17623 | 27 ft | 11 kts | 41° |
| 2026-04-20 00:57 | 32.73035 | -117.17650 | 27 ft | 10 kts | 288° |
| 2026-04-20 00:57 | 32.73039 | -117.17666 | 27 ft | 15 kts | 286° |
| 2026-04-20 00:57 | 32.73168 | -117.18196 | 29 ft | 122 kts | 285° |
| 2026-04-20 00:57 | 32.73371 | -117.18994 | 179 ft | 172 kts | 291° |
| 2026-04-20 00:58 | 32.73828 | -117.20447 | 955 ft | 197 kts | 290° |
| 2026-04-20 00:58 | 32.74536 | -117.21935 | 1580 ft | 220 kts | 302° |
| 2026-04-20 00:58 | 32.75408 | -117.23520 | 2390 ft | 237 kts | 302° |
| 2026-04-20 00:58 | 32.76333 | -117.25187 | 3391 ft | 243 kts | 302° |
| 2026-04-20 00:59 | 32.77266 | -117.26886 | 4462 ft | 247 kts | 301° |
| 2026-04-20 00:59 | 32.78212 | -117.28628 | 5432 ft | 254 kts | 300° |
| 2026-04-20 00:59 | 32.79178 | -117.30418 | 6346 ft | 263 kts | 300° |
| 2026-04-20 00:59 | 32.80277 | -117.32298 | 6859 ft | 287 kts | 304° |
| 2026-04-20 01:00 | 32.81480 | -117.34188 | 7886 ft | 283 kts | 306° |
| 2026-04-20 01:00 | 32.82665 | -117.36019 | 9207 ft | 275 kts | 306° |
| 2026-04-20 01:00 | 32.83814 | -117.37794 | 10369 ft | 275 kts | 306° |
| 2026-04-20 01:00 | 32.84983 | -117.39604 | 11376 ft | 278 kts | 306° |
| 2026-04-20 01:01 | 32.86172 | -117.41450 | 12350 ft | 283 kts | 306° |
| 2026-04-20 01:01 | 32.87378 | -117.43324 | 13326 ft | 287 kts | 306° |
| 2026-04-20 01:01 | 32.88607 | -117.45235 | 14180 ft | 293 kts | 305° |
| 2026-04-20 01:01 | 32.89851 | -117.47173 | 14719 ft | 296 kts | 305° |
| 2026-04-20 01:02 | 32.91108 | -117.49133 | 14944 ft | 298 kts | 305° |
| 2026-04-20 01:02 | 32.92370 | -117.51098 | 14978 ft | 299 kts | 305° |
| 2026-04-20 01:02 | 32.93636 | -117.53071 | 14970 ft | 300 kts | 305° |
| 2026-04-20 01:02 | 32.94905 | -117.55048 | 14972 ft | 300 kts | 305° |
| 2026-04-20 01:03 | 32.96178 | -117.57034 | 15185 ft | 304 kts | 305° |
| 2026-04-20 01:03 | 32.97473 | -117.59052 | 16049 ft | 307 kts | 305° |
| 2026-04-20 01:03 | 32.98767 | -117.61065 | 17141 ft | 305 kts | 304° |
| 2026-04-20 01:03 | 33.00042 | -117.63053 | 18156 ft | 307 kts | 304° |
| 2026-04-20 01:04 | 33.01361 | -117.65112 | 19002 ft | 310 kts | 304° |
| 2026-04-20 01:04 | 33.02658 | -117.67140 | 19845 ft | 312 kts | 304° |
| 2026-04-20 01:04 | 33.03977 | -117.69203 | 20756 ft | 314 kts | 304° |
| 2026-04-20 01:04 | 33.05308 | -117.71274 | 21665 ft | 315 kts | 306° |
| 2026-04-20 01:05 | 33.06767 | -117.73239 | 22562 ft | 319 kts | 313° |
| 2026-04-20 01:05 | 33.08415 | -117.75038 | 23477 ft | 322 kts | 316° |
| 2026-04-20 01:05 | 33.10122 | -117.76784 | 24209 ft | 325 kts | 317° |
| 2026-04-20 01:05 | 33.11857 | -117.78538 | 24921 ft | 328 kts | 317° |
| 2026-04-20 01:06 | 33.13601 | -117.80305 | 25615 ft | 330 kts | 317° |
| 2026-04-20 01:06 | 33.15359 | -117.82090 | 26310 ft | 333 kts | 317° |
| 2026-04-20 01:06 | 33.17126 | -117.83887 | 26995 ft | 335 kts | 317° |
| 2026-04-20 01:06 | 33.18901 | -117.85706 | 27672 ft | 338 kts | 316° |
| 2026-04-20 01:07 | 33.20614 | -117.87641 | 28349 ft | 340 kts | 314° |
| 2026-04-20 01:07 | 33.22304 | -117.89643 | 28991 ft | 342 kts | 313° |
| 2026-04-20 01:07 | 33.23996 | -117.91663 | 29625 ft | 345 kts | 313° |
| 2026-04-20 01:07 | 33.25696 | -117.93696 | 30207 ft | 348 kts | 313° |
| 2026-04-20 01:08 | 33.27412 | -117.95746 | 30810 ft | 347 kts | 313° |
| 2026-04-20 01:08 | 33.29112 | -117.97777 | 31486 ft | 344 kts | 313° |
| 2026-04-20 01:08 | 33.30797 | -117.99789 | 32158 ft | 340 kts | 313° |
| 2026-04-20 01:08 | 33.32465 | -118.01782 | 32787 ft | 338 kts | 313° |
| 2026-04-20 01:09 | 33.34101 | -118.03740 | 33376 ft | 336 kts | 313° |
| 2026-04-20 01:09 | 33.35770 | -118.05737 | 33959 ft | 334 kts | 313° |
| 2026-04-20 01:09 | 33.37409 | -118.07699 | 34431 ft | 333 kts | 312° |
| 2026-04-20 01:09 | 33.39044 | -118.09657 | 34879 ft | 332 kts | 311° |
| 2026-04-20 01:10 | 33.40659 | -118.11593 | 35267 ft | 333 kts | 311° |
| 2026-04-20 01:10 | 33.43939 | -118.15530 | 35945 ft | 336 kts | 310° |
| 2026-04-20 01:10 | 33.45588 | -118.17509 | 35985 ft | 336 kts | 310° |
| 2026-04-20 01:11 | 33.48957 | -118.21564 | 36003 ft | 356 kts | 310° |
| 2026-04-20 01:11 | 33.50735 | -118.23706 | 35999 ft | 368 kts | 311° |
| 2026-04-20 01:11 | 33.52568 | -118.25914 | 36000 ft | 379 kts | 311° |
| 2026-04-20 01:12 | 33.54461 | -118.28193 | 35997 ft | 391 kts | 311° |
| 2026-04-20 01:12 | 33.56407 | -118.30538 | 36004 ft | 402 kts | 311° |
| 2026-04-20 01:12 | 33.58407 | -118.32949 | 35998 ft | 413 kts | 311° |
| 2026-04-20 01:12 | 33.60461 | -118.35426 | 35995 ft | 424 kts | 311° |
| 2026-04-20 01:13 | 33.64693 | -118.40534 | 35985 ft | 434 kts | 311° |
| 2026-04-20 01:13 | 33.68941 | -118.45667 | 35985 ft | 433 kts | 311° |
| 2026-04-20 01:14 | 33.73186 | -118.50808 | 35977 ft | 433 kts | 311° |
| 2026-04-20 01:14 | 33.77398 | -118.55918 | 35971 ft | 433 kts | 311° |
| 2026-04-20 01:15 | 33.81642 | -118.61074 | 35972 ft | 434 kts | 311° |
| 2026-04-20 01:15 | 33.85887 | -118.66240 | 35973 ft | 434 kts | 311° |
| 2026-04-20 01:16 | 33.90120 | -118.71399 | 35968 ft | 432 kts | 311° |
| 2026-04-20 01:16 | 33.94339 | -118.76548 | 35968 ft | 432 kts | 311° |
| 2026-04-20 01:17 | 33.98560 | -118.81708 | 35967 ft | 432 kts | 311° |
| 2026-04-20 01:17 | 34.02777 | -118.86870 | 35961 ft | 432 kts | 311° |
| 2026-04-20 01:18 | 34.06992 | -118.92039 | 35966 ft | 432 kts | 311° |
| 2026-04-20 01:18 | 34.11209 | -118.97216 | 35980 ft | 432 kts | 311° |
| 2026-04-20 01:19 | 34.15122 | -119.02646 | 35984 ft | 426 kts | 302° |
| 2026-04-20 01:19 | 34.18355 | -119.08629 | 35970 ft | 425 kts | 299° |
| 2026-04-20 01:20 | 34.21434 | -119.14718 | 35970 ft | 425 kts | 298° |
| 2026-04-20 01:20 | 34.24501 | -119.20781 | 35970 ft | 425 kts | 299° |
| 2026-04-20 01:21 | 34.27608 | -119.26862 | 35972 ft | 424 kts | 299° |
| 2026-04-20 01:21 | 34.30710 | -119.32908 | 35974 ft | 423 kts | 299° |
| 2026-04-20 01:22 | 34.33814 | -119.38965 | 35972 ft | 422 kts | 299° |
| 2026-04-20 01:22 | 34.36904 | -119.45009 | 35978 ft | 422 kts | 299° |
| 2026-04-20 01:23 | 34.40009 | -119.51053 | 35982 ft | 423 kts | 301° |
| 2026-04-20 01:23 | 34.43798 | -119.56532 | 35973 ft | 425 kts | 310° |
| 2026-04-20 01:24 | 34.47908 | -119.61686 | 35966 ft | 425 kts | 311° |
| 2026-04-20 01:24 | 34.52073 | -119.66774 | 35972 ft | 425 kts | 311° |
| 2026-04-20 01:25 | 34.56215 | -119.71844 | 35969 ft | 425 kts | 311° |
| 2026-04-20 01:25 | 34.60363 | -119.76953 | 35955 ft | 425 kts | 311° |
| 2026-04-20 01:26 | 34.64531 | -119.82104 | 35956 ft | 425 kts | 311° |
| 2026-04-20 01:26 | 34.68665 | -119.87224 | 35964 ft | 424 kts | 311° |
| 2026-04-20 01:27 | 34.72773 | -119.92320 | 35960 ft | 424 kts | 311° |
| 2026-04-20 01:27 | 34.76896 | -119.97440 | 35963 ft | 424 kts | 311° |
| 2026-04-20 01:28 | 34.81016 | -120.02565 | 35959 ft | 423 kts | 311° |
| 2026-04-20 01:28 | 34.85138 | -120.07700 | 35965 ft | 424 kts | 311° |
| 2026-04-20 01:29 | 34.89250 | -120.12828 | 35969 ft | 423 kts | 310° |
| 2026-04-20 01:29 | 34.93364 | -120.17966 | 35975 ft | 423 kts | 310° |
| 2026-04-20 01:30 | 34.97464 | -120.23100 | 35976 ft | 423 kts | 310° |
| 2026-04-20 01:30 | 35.01564 | -120.28241 | 35975 ft | 423 kts | 310° |
| 2026-04-20 01:31 | 35.05668 | -120.33394 | 35977 ft | 423 kts | 310° |
| 2026-04-20 01:31 | 35.09804 | -120.38508 | 35976 ft | 424 kts | 312° |
| 2026-04-20 01:32 | 35.14135 | -120.43412 | 35981 ft | 424 kts | 313° |
| 2026-04-20 01:32 | 35.18516 | -120.48249 | 35976 ft | 424 kts | 313° |
| 2026-04-20 01:33 | 35.22886 | -120.53107 | 35965 ft | 424 kts | 313° |
| 2026-04-20 01:33 | 35.27241 | -120.57991 | 35969 ft | 425 kts | 313° |
| 2026-04-20 01:34 | 35.31588 | -120.62886 | 35972 ft | 425 kts | 313° |
| 2026-04-20 01:34 | 35.35939 | -120.67794 | 35969 ft | 425 kts | 313° |
| 2026-04-20 01:35 | 35.40256 | -120.72669 | 35976 ft | 425 kts | 313° |
| 2026-04-20 01:35 | 35.44605 | -120.77587 | 35974 ft | 425 kts | 313° |
| 2026-04-20 01:36 | 35.49054 | -120.82390 | 35989 ft | 428 kts | 317° |
| 2026-04-20 01:36 | 35.53784 | -120.86841 | 35986 ft | 428 kts | 318° |
| 2026-04-20 01:37 | 35.58541 | -120.91266 | 35995 ft | 429 kts | 318° |
| 2026-04-20 01:37 | 35.63299 | -120.95690 | 35978 ft | 429 kts | 318° |
| 2026-04-20 01:38 | 35.68055 | -121.00117 | 35977 ft | 429 kts | 317° |
| 2026-04-20 01:38 | 35.72817 | -121.04556 | 35974 ft | 429 kts | 317° |
| 2026-04-20 01:39 | 35.76771 | -121.08248 | 35974 ft | 429 kts | 317° |
| 2026-04-20 01:39 | 35.81533 | -121.12700 | 35963 ft | 429 kts | 317° |
| 2026-04-20 01:40 | 35.87064 | -121.17878 | 35965 ft | 429 kts | 317° |
| 2026-04-20 01:40 | 35.91047 | -121.21613 | 35988 ft | 430 kts | 317° |
| 2026-04-20 01:41 | 35.95811 | -121.26088 | 35959 ft | 431 kts | 317° |
| 2026-04-20 01:41 | 36.00583 | -121.30577 | 35962 ft | 431 kts | 317° |
| 2026-04-20 01:42 | 36.05361 | -121.35078 | 35958 ft | 431 kts | 317° |
| 2026-04-20 01:42 | 36.10336 | -121.39212 | 35960 ft | 435 kts | 322° |
| 2026-04-20 01:43 | 36.15458 | -121.43197 | 35478 ft | 433 kts | 322° |
| 2026-04-20 01:43 | 36.18017 | -121.45191 | 34629 ft | 436 kts | 322° |
| 2026-04-20 01:43 | 36.20599 | -121.47208 | 33729 ft | 441 kts | 322° |
| 2026-04-20 01:44 | 36.23201 | -121.49243 | 32703 ft | 445 kts | 322° |
| 2026-04-20 01:44 | 36.25835 | -121.51305 | 31624 ft | 450 kts | 323° |
| 2026-04-20 01:44 | 36.28500 | -121.53396 | 30493 ft | 457 kts | 322° |
| 2026-04-20 01:44 | 36.31204 | -121.55518 | 29395 ft | 461 kts | 322° |
| 2026-04-20 01:45 | 36.33902 | -121.57635 | 28602 ft | 457 kts | 323° |
| 2026-04-20 01:45 | 36.36575 | -121.59730 | 27847 ft | 452 kts | 323° |
| 2026-04-20 01:45 | 36.39222 | -121.61805 | 27094 ft | 447 kts | 323° |
| 2026-04-20 01:45 | 36.41842 | -121.63862 | 26375 ft | 444 kts | 323° |
| 2026-04-20 01:46 | 36.44451 | -121.65912 | 25608 ft | 442 kts | 322° |
| 2026-04-20 01:46 | 36.47041 | -121.67951 | 24889 ft | 439 kts | 322° |
| 2026-04-20 01:46 | 36.49615 | -121.69979 | 24060 ft | 439 kts | 323° |
| 2026-04-20 01:46 | 36.52219 | -121.72038 | 22832 ft | 447 kts | 323° |
| 2026-04-20 01:47 | 36.54832 | -121.74103 | 22149 ft | 441 kts | 323° |
| 2026-04-20 01:47 | 36.57380 | -121.76112 | 21802 ft | 425 kts | 323° |
| 2026-04-20 01:47 | 36.59803 | -121.78023 | 21494 ft | 411 kts | 323° |
| 2026-04-20 01:47 | 36.62197 | -121.79918 | 20948 ft | 404 kts | 322° |
| 2026-04-20 01:48 | 36.64561 | -121.81795 | 20319 ft | 401 kts | 322° |
| 2026-04-20 01:48 | 36.66907 | -121.83658 | 19713 ft | 398 kts | 322° |
| 2026-04-20 01:48 | 36.69233 | -121.85506 | 19108 ft | 394 kts | 322° |
| 2026-04-20 01:48 | 36.71537 | -121.87337 | 18506 ft | 392 kts | 323° |
| 2026-04-20 01:49 | 36.73921 | -121.88990 | 17843 ft | 394 kts | 332° |
| 2026-04-20 01:49 | 36.76519 | -121.90079 | 17192 ft | 394 kts | 342° |
| 2026-04-20 01:49 | 36.79183 | -121.90872 | 16538 ft | 392 kts | 344° |
| 2026-04-20 01:49 | 36.81838 | -121.91603 | 15923 ft | 388 kts | 345° |
| 2026-04-20 01:50 | 36.84463 | -121.92322 | 15307 ft | 385 kts | 345° |
| 2026-04-20 01:50 | 36.87067 | -121.93040 | 14708 ft | 381 kts | 345° |
| 2026-04-20 01:50 | 36.89642 | -121.93755 | 14114 ft | 378 kts | 345° |
| 2026-04-20 01:50 | 36.92168 | -121.94458 | 13504 ft | 375 kts | 345° |
| 2026-04-20 01:51 | 36.94699 | -121.95181 | 12877 ft | 370 kts | 343° |
| 2026-04-20 01:51 | 36.97151 | -121.96058 | 12402 ft | 362 kts | 340° |
| 2026-04-20 01:51 | 36.99511 | -121.96972 | 12161 ft | 347 kts | 340° |
| 2026-04-20 01:51 | 37.01770 | -121.97856 | 11962 ft | 333 kts | 340° |
| 2026-04-20 01:52 | 37.03946 | -121.98708 | 11757 ft | 322 kts | 340° |
| 2026-04-20 01:52 | 37.06057 | -121.99536 | 11458 ft | 315 kts | 340° |
| 2026-04-20 01:52 | 37.08140 | -122.00352 | 11061 ft | 312 kts | 340° |
| 2026-04-20 01:52 | 37.10197 | -122.01158 | 10674 ft | 309 kts | 340° |
| 2026-04-20 01:53 | 37.12244 | -122.01959 | 10281 ft | 307 kts | 340° |
| 2026-04-20 01:53 | 37.14272 | -122.02754 | 9888 ft | 304 kts | 340° |
| 2026-04-20 01:53 | 37.16294 | -122.03547 | 9454 ft | 303 kts | 341° |
| 2026-04-20 01:53 | 37.18294 | -122.04330 | 8986 ft | 302 kts | 341° |
| 2026-04-20 01:54 | 37.20297 | -122.05116 | 8533 ft | 300 kts | 341° |
| 2026-04-20 01:54 | 37.22282 | -122.05894 | 8122 ft | 297 kts | 341° |
| 2026-04-20 01:54 | 37.24245 | -122.06664 | 7943 ft | 295 kts | 341° |
| 2026-04-20 01:54 | 37.26207 | -122.07434 | 7814 ft | 295 kts | 341° |
| 2026-04-20 01:55 | 37.28161 | -122.08198 | 7358 ft | 294 kts | 341° |
| 2026-04-20 01:55 | 37.30116 | -122.08967 | 6876 ft | 294 kts | 341° |
| 2026-04-20 01:55 | 37.32065 | -122.09735 | 6450 ft | 292 kts | 341° |
| 2026-04-20 01:55 | 37.33995 | -122.10499 | 5976 ft | 291 kts | 342° |
| 2026-04-20 01:56 | 37.35931 | -122.11262 | 5470 ft | 291 kts | 341° |
| 2026-04-20 01:56 | 37.37866 | -122.11988 | 5043 ft | 288 kts | 343° |
| 2026-04-20 01:56 | 37.39790 | -122.12648 | 4649 ft | 285 kts | 343° |
| 2026-04-20 01:56 | 37.41699 | -122.13290 | 4228 ft | 283 kts | 344° |
| 2026-04-20 01:57 | 37.43569 | -122.13916 | 3838 ft | 280 kts | 343° |
| 2026-04-20 01:57 | 37.45433 | -122.14543 | 3482 ft | 275 kts | 343° |
| 2026-04-20 01:57 | 37.47283 | -122.15164 | 3076 ft | 274 kts | 343° |
| 2026-04-20 01:57 | 37.49109 | -122.15799 | 2693 ft | 270 kts | 341° |
| 2026-04-20 01:58 | 37.50834 | -122.16627 | 2369 ft | 262 kts | 332° |
| 2026-04-20 01:58 | 37.52399 | -122.17753 | 2021 ft | 256 kts | 322° |
| 2026-04-20 01:58 | 37.53765 | -122.19163 | 1914 ft | 253 kts | 313° |
| 2026-04-20 01:58 | 37.54929 | -122.20804 | 1933 ft | 249 kts | 301° |
| 2026-04-20 01:59 | 37.55837 | -122.22594 | 1896 ft | 234 kts | 296° |
| 2026-04-20 01:59 | 37.56593 | -122.24335 | 1781 ft | 218 kts | 294° |
| 2026-04-20 01:59 | 37.57267 | -122.25953 | 1701 ft | 196 kts | 293° |
| 2026-04-20 01:59 | 37.57859 | -122.27423 | 1570 ft | 181 kts | 292° |
| 2026-04-20 02:00 | 37.58372 | -122.28739 | 1420 ft | 155 kts | 292° |
| 2026-04-20 02:00 | 37.58836 | -122.29893 | 1102 ft | 142 kts | 294° |
| 2026-04-20 02:00 | 37.59317 | -122.30943 | 804 ft | 134 kts | 297° |
| 2026-04-20 02:00 | 37.59826 | -122.31908 | 575 ft | 132 kts | 299° |
| 2026-04-20 02:01 | 37.60310 | -122.32858 | 395 ft | 125 kts | 294° |
| 2026-04-20 02:01 | 37.60692 | -122.33801 | 371 ft | 117 kts | 286° |
| 2026-04-20 02:01 | 37.61009 | -122.34714 | 292 ft | 113 kts | 288° |
| 2026-04-20 02:01 | 37.61336 | -122.35637 | 116 ft | 114 kts | 284° |
| 2026-04-20 02:02 | 37.61672 | -122.36505 | 20 ft | 95 kts | 297° |
| 2026-04-20 02:02 | 37.61849 | -122.36898 | 20 ft | 41 kts | 298° |
| 2026-04-20 02:02 | 37.61987 | -122.37240 | 18 ft | 46 kts | 296° |
| 2026-04-20 02:02 | 37.61999 | -122.37502 | 18 ft | 27 kts | 210° |
| 2026-04-20 02:03 | 37.61816 | -122.37613 | 24 ft | 35 kts | 207° |
| 2026-04-20 02:03 | 37.61673 | -122.37756 | 21 ft | 16 kts | 261° |
| 2026-04-20 02:03 | 37.61673 | -122.37930 | 19 ft | 15 kts | 259° |
| 2026-04-20 02:03 | 37.61657 | -122.37969 | 18 ft | 1 kts | 223° |
| 2026-04-20 02:04 | 37.61655 | -122.37980 | 18 ft | 2 kts | 262° |
| 2026-04-20 02:04 | 37.61660 | -122.38011 | 18 ft | 4 kts | 286° |
| 2026-04-20 02:04 | 37.61670 | -122.38040 | 19 ft | 3 kts | 298° |
| 2026-04-20 02:04 | 37.61672 | -122.38045 | 21 ft | 0 kts | 298° |